Flight Track Log - Related Links

Times and Time Zones

All times are in EDT time to prevent confusion due to time zone crossing. See the N240JK flight status page for this flight to view local times or setup timezone preferences in your user account.

Time Position Orientation Groundspeed Altitude Reporting Facility
EDT Latitude Longitude Course Direction KTS MPH feet Rate Location/Type
Mon 02:12:51 PM 43.0333 -88.2167 90° East 184 212 1,500  Level KMKE
Mon 02:13:27 PM 43.0333 -88.1667 90° East 205 236 2,800 1,705 Climbing KMKE
Mon 02:14:19 PM 42.9797 -88.1494 167° South 202 232 4,000 684 Climbing Chicago Center
Mon 02:15:21 PM 42.9239 -88.1386 172° South 203 234 4,100 1,452 Climbing Chicago Center
Mon 02:16:23 PM 42.8525 -88.1342 177° South 247 284 7,000 2,855 Climbing Chicago Center
Mon 02:17:25 PM 42.7742 -88.1225 174° South 280 322 10,000 2,855 Climbing Chicago Center
Mon 02:18:27 PM 42.6906 -88.1072 172° South 299 344 12,900 2,661 Climbing Chicago Center
Mon 02:19:29 PM 42.6044 -88.0833 168° South 315 362 15,500 2,613 Climbing Chicago Center
Mon 02:20:31 PM 42.4981 -88.0344 161° South 335 386 18,300 2,371 Climbing Chicago Center
Mon 02:21:33 PM 42.4017 -87.9908 162° South 364 419 20,400 2,081 Climbing Chicago Center
Mon 02:22:35 PM 42.3022 -87.9483 162° South 393 452 22,600 2,081 Climbing Chicago Center
Mon 02:23:37 PM 42.1942 -87.9031 163° South 408 470 24,700 2,081 Climbing Chicago Center
Mon 02:24:39 PM 42.0819 -87.8528 162° South 422 486 26,900 2,129 Climbing Chicago Center
Mon 02:25:41 PM 41.9411 -87.7903 162° South 442 509 29,100 2,032 Climbing Chicago Center
Mon 02:26:43 PM 41.8192 -87.7475 165° South 451 519 31,100 1,984 Climbing Chicago Center
Mon 02:27:45 PM 41.6964 -87.7019 165° South 455 524 33,200 2,081 Climbing Chicago Center
Mon 02:28:47 PM 41.5719 -87.6583 165° South 459 528 35,400 1,984 Climbing Chicago Center
Mon 02:29:49 PM 41.4447 -87.6167 166° South 464 534 37,300 1,742 Climbing Chicago Center
Mon 02:30:51 PM 41.3169 -87.5725 165° South 471 542 39,000 816 Climbing Chicago Center
Mon 02:31:54 PM 41.1856 -87.5256 165° South 483 556 39,000  Level Chicago Center
Mon 02:32:56 PM 41.0283 -87.4719 166° South 486 559 39,000  Level Chicago Center
Mon 02:33:58 PM 40.8994 -87.4292 166° South 479 551 39,000  Level Chicago Center
Mon 02:35:00 PM 40.7717 -87.3869 166° South 476 548 39,000  Level Chicago Center
Mon 02:36:02 PM 40.6447 -87.3444 166° South 473 544 39,000  Level Chicago Center
Mon 02:37:04 PM 40.5181 -87.3008 165° South 472 543 39,000  Level Chicago Center
Mon 02:38:06 PM 40.3794 -87.2539 166° South 469 540 39,000  Level Chicago Center
Mon 02:39:08 PM 40.2556 -87.2136 166° South 463 533 39,000  Level Chicago Center
Mon 02:40:10 PM 40.1322 -87.1717 165° South 462 532 39,000  Level Chicago Center
Mon 02:41:12 PM 39.9856 -87.1236 166° South 457 526 39,000  Level Chicago Center
Mon 02:42:35 PM 39.8361 -87.0736 166° South 460 529 39,000  Level Indianapolis Center
Mon 02:43:37 PM 39.6897 -87.0286 167° South 457 526 39,000  Level Indianapolis Center
Mon 02:44:39 PM 39.5683 -86.9872 165° South 457 526 39,000  Level Indianapolis Center
Mon 02:45:41 PM 39.4456 -86.9469 166° South 459 528 39,000  Level Indianapolis Center
Mon 02:46:43 PM 39.3233 -86.9064 166° South 456 525 39,000  Level Indianapolis Center
Mon 02:47:45 PM 39.2014 -86.8675 166° South 456 525 39,000  Level Indianapolis Center
Mon 02:48:47 PM 39.0531 -86.8181 165° South 457 526 39,000  Level Indianapolis Center
Mon 02:49:49 PM 38.9303 -86.7783 166° South 454 522 39,000  Level Indianapolis Center
Mon 02:50:51 PM 38.8061 -86.7383 166° South 455 524 39,000  Level Indianapolis Center
Mon 02:51:53 PM 38.6814 -86.6989 166° South 457 526 39,000  Level Indianapolis Center
Mon 02:52:55 PM 38.5564 -86.6586 166° South 458 527 39,000  Level Indianapolis Center
Mon 02:53:57 PM 38.4314 -86.6189 166° South 457 526 39,000  Level Indianapolis Center
Mon 02:54:59 PM 38.3061 -86.5803 166° South 457 526 39,000  Level Indianapolis Center
Mon 02:56:00 PM 38.1800 -86.5403 166° South 460 529 39,000  Level Indianapolis Center
Mon 02:57:02 PM 38.0544 -86.5014 166° South 460 529 39,000  Level Indianapolis Center
Mon 02:58:04 PM 37.9042 -86.4533 166° South 460 529 39,000  Level Indianapolis Center
Mon 02:59:06 PM 37.7822 -86.4158 166° South 462 532 39,000  Level Indianapolis Center
Mon 03:00:09 PM 37.6564 -86.3839 169° South 458 527 39,000  Level Indianapolis Center
Mon 03:01:11 PM 37.5294 -86.3425 166° South 463 533 39,000  Level Indianapolis Center
Mon 03:02:13 PM 37.4025 -86.3033 166° South 463 533 39,000  Level Indianapolis Center
Mon 03:03:15 PM 37.2744 -86.2619 166° South 466 536 39,000  Level Indianapolis Center
Mon 03:04:17 PM 37.1269 -86.2172 166° South 463 533 39,000  Level Indianapolis Center
Mon 03:05:19 PM 36.9997 -86.1794 167° South 462 532 39,000  Level Indianapolis Center
Mon 03:06:21 PM 36.8722 -86.1411 166° South 463 533 39,000  Level Indianapolis Center
Mon 03:07:23 PM 36.7464 -86.1025 166° South 460 529 39,000  Level Indianapolis Center
Mon 03:08:25 PM 36.6194 -86.0636 166° South 460 529 39,000  Level Indianapolis Center
Mon 03:09:27 PM 36.4936 -86.0264 167° South 457 526 39,000  Level Indianapolis Center
Mon 03:10:36 PM 36.3375 -85.9772 166° South 455 524 39,000  Level Memphis Center
Mon 03:11:36 PM 36.2114 -85.9428 168° South 455 524 39,000  Level Memphis Center
Mon 03:12:36 PM 36.0892 -85.9058 166° South 455 524 39,000  Level Memphis Center
Mon 03:13:36 PM 35.9625 -85.8667 166° South 455 524 39,000  Level Memphis Center
Mon 03:15:19 PM 35.7536 -85.8094 167° South 458 527 39,000  Level Atlanta Center
Mon 03:16:19 PM 35.6289 -85.7736 167° South 458 527 39,000  Level Atlanta Center
Mon 03:17:19 PM 35.5022 -85.7353 166° South 458 527 39,000  Level Atlanta Center
Mon 03:18:19 PM 35.3817 -85.6997 166° South 458 527 39,000  Level Atlanta Center
Mon 03:19:19 PM 35.2569 -85.6639 167° South 458 527 39,000  Level Atlanta Center
Mon 03:20:19 PM 35.1342 -85.6261 166° South 458 527 39,000  Level Atlanta Center
Mon 03:21:19 PM 35.0117 -85.5908 167° South 458 527 39,000  Level Atlanta Center
Mon 03:22:19 PM 34.8889 -85.5581 168° South 453 521 39,000  Level Atlanta Center
Mon 03:23:19 PM 34.7683 -85.5206 166° South 453 521 39,000  Level Atlanta Center
Mon 03:24:19 PM 34.6478 -85.4881 167° South 453 521 39,000  Level Atlanta Center
Mon 03:25:19 PM 34.5269 -85.4533 167° South 453 521 39,000  Level Atlanta Center
Mon 03:26:19 PM 34.4064 -85.4211 168° South 453 521 39,000  Level Atlanta Center
Mon 03:27:19 PM 34.3022 -85.3917 167° South 447 514 39,000  Level Atlanta Center
Mon 03:28:19 PM 34.1839 -85.3572 166° South 447 514 39,000  Level Atlanta Center
Mon 03:29:19 PM 34.0653 -85.3228 166° South 447 514 39,000  Level Atlanta Center
Mon 03:30:19 PM 33.9486 -85.2933 168° South 440 506 39,000  Level Atlanta Center
Mon 03:31:19 PM 33.8258 -85.2592 167° South 440 506 39,000  Level Atlanta Center
Mon 03:32:19 PM 33.7031 -85.2250 167° South 450 518 39,000  Level Atlanta Center
Mon 03:33:19 PM 33.5803 -85.1908 167° South 450 518 39,000  Level Atlanta Center
Mon 03:34:19 PM 33.4447 -85.1517 166° South 450 518 39,000  Level Atlanta Center
Mon 03:35:19 PM 33.3178 -85.1178 167° South 455 524 39,000  Level Atlanta Center
Mon 03:36:19 PM 33.1928 -85.0839 167° South 460 529 39,000  Level Atlanta Center
Mon 03:37:19 PM 33.0678 -85.0503 167° South 460 529 39,000  Level Atlanta Center
Mon 03:38:19 PM 32.9492 -85.0217 169° South 460 529 39,000  Level Atlanta Center
Mon 03:39:19 PM 32.8242 -84.9831 165° South 454 522 39,000  Level Atlanta Center
Mon 03:40:19 PM 32.7014 -84.9422 164° South 452 520 39,000  Level Atlanta Center
Mon 03:41:19 PM 32.5764 -84.9064 166° South 452 520 39,000  Level Atlanta Center
Mon 03:42:19 PM 32.4597 -84.8758 168° South 452 520 39,000  Level Atlanta Center
Mon 03:43:19 PM 32.3306 -84.8428 168° South 452 520 39,000  Level Atlanta Center
Mon 03:44:19 PM 32.2097 -84.8169 170° South 452 520 39,000  Level Atlanta Center
Mon 03:45:19 PM 32.0847 -84.7817 167° South 452 520 39,000  Level Atlanta Center
Mon 03:47:05 PM 31.8756 -84.7275 168° South 450 518 39,000  Level Jacksonville Center
Mon 03:48:05 PM 31.7572 -84.6883 164° South 450 518 39,000  Level Jacksonville Center
Mon 03:49:05 PM 31.6261 -84.6592 169° South 455 524 39,000  Level Jacksonville Center
Mon 03:50:05 PM 31.5117 -84.6275 167° South 468 539 39,000  Level Jacksonville Center
Mon 03:51:05 PM 31.3619 -84.5858 167° South 468 539 39,000  Level Jacksonville Center
Mon 03:52:05 PM 31.2369 -84.5544 168° South 468 539 39,000  Level Jacksonville Center
Mon 03:53:05 PM 31.1100 -84.5208 167° South 468 539 39,000  Level Jacksonville Center
Mon 03:54:05 PM 30.9875 -84.4797 164° South 468 539 39,000  Level Jacksonville Center
Mon 03:55:05 PM 30.8669 -84.4222 158° South 468 539 39,000  Level Jacksonville Center
Mon 03:56:05 PM 30.7467 -84.3597 156° South 473 544 39,000  Level Jacksonville Center
Mon 03:57:05 PM 30.6242 -84.2975 156° South 473 544 39,000  Level Jacksonville Center
Mon 03:58:05 PM 30.5203 -84.2431 156° South 473 544 39,000  Level Jacksonville Center
Mon 03:59:05 PM 30.3875 -84.1786 157° South 473 544 39,000  Level Jacksonville Center
Mon 04:00:05 PM 30.2692 -84.1119 154° Southeast 468 539 39,000  Level Jacksonville Center
Mon 04:01:05 PM 30.1506 -84.0481 155° Southeast 468 539 39,000 -200 Level Jacksonville Center
Mon 04:02:05 PM 30.0322 -83.9769 153° Southeast 473 544 38,600 -950 Descending Jacksonville Center
Mon 04:03:05 PM 29.9264 -83.9136 153° Southeast 473 544 37,100 -1,500 Descending Jacksonville Center
Mon 04:04:05 PM 29.8058 -83.8453 154° Southeast 478 550 35,600 -1,613 Descending Jacksonville Center
Mon 04:05:04 PM 29.6872 -83.7772 154° Southeast 478 550 33,900 -1,750 Descending Jacksonville Center
Mon 04:06:05 PM 29.5686 -83.7117 154° Southeast 478 550 32,100 -1,785 Descending Jacksonville Center
Mon 04:07:05 PM 29.4542 -83.6439 153° Southeast 473 544 30,300 -1,750 Descending Jacksonville Center
Mon 04:08:05 PM 29.3397 -83.5786 154° Southeast 467 537 28,600 -1,650 Descending Jacksonville Center
Mon 04:09:05 PM 29.2233 -83.5136 154° Southeast 462 532 27,000 -1,400 Descending Jacksonville Center
Mon 04:10:05 PM 29.1172 -83.4464 151° Southeast 450 518 25,800 -1,550 Descending Jacksonville Center
Mon 04:11:05 PM 29.0150 -83.3817 151° Southeast 438 504 23,900 -1,850 Descending Jacksonville Center
Mon 04:12:05 PM 28.9108 -83.3172 152° Southeast 427 491 22,100 -1,900 Descending Jacksonville Center
Mon 04:13:05 PM 28.8111 -83.2481 149° Southeast 422 486 20,100 -1,950 Descending Jacksonville Center
Mon 04:14:05 PM 28.7131 -83.1886 152° Southeast 411 473 18,200 -1,978 Descending Jacksonville Center
Mon 04:16:10 PM 28.5000 -83.0500 150° Southeast 368 423 14,000 -1,838 Descending Tampa TRACON
Mon 04:16:58 PM 28.4500 -83.0167 150° Southeast 318 366 12,900 -1,321 Descending Tampa TRACON
Mon 04:17:59 PM 28.3667 -82.9833 161° South 288 331 11,600 -1,300 Descending Tampa TRACON
Mon 04:18:58 PM 28.2833 -82.9333 152° Southeast 320 368 10,300 -1,392 Descending Tampa TRACON
Mon 04:20:04 PM 28.2000 -82.9000 161° South 284 327 8,700 -1,619 Descending Tampa TRACON
Mon 04:21:04 PM 28.1333 -82.8667 156° South 263 303 6,900 -1,850 Descending Tampa TRACON
Mon 04:22:04 PM 28.0667 -82.8333 156° South 258 297 5,000 -1,450 Descending Tampa TRACON
Mon 04:23:04 PM 28.0000 -82.8333 180° South 239 275 4,000 -850 Descending Tampa TRACON
Mon 04:24:04 PM 27.9500 -82.8333 180° South 194 223 3,300 -522 Descending Tampa TRACON
Mon 04:24:59 PM 27.9000 -82.8333 180° South 187 215 3,000 -261 Descending Tampa TRACON
Mon 04:25:59 PM 27.8500 -82.8167 164° South 184 212 2,800 -500 Descending Tampa TRACON
Mon 04:27:11 PM 27.8333 -82.7500 106° East 194 223 1,900 -600 Descending Tampa TRACON
Mon 04:27:59 PM 27.8167 -82.7000 111° Southeast 146 168 1,600 -316 Descending Tampa TRACON
Mon 04:29:05 PM 27.8333 -82.6667 61° Northeast 145 167 1,300 -450 Descending Tampa TRACON
Mon 04:29:59 PM 27.8667 -82.6833 336° Northwest 137 158 700 -667 Descending Tampa TRACON

Login

Don't have an account? Register now (free) for customized features, flight alerts, and more!